Hartsfield Jackson Atlanta International Airport
KATL : now visible

Airfield :











YOU CAN JOIN US ON...

 
LOGIN :

Register | Disclaimer

   EN    FR    IT 

 









Legend :    VFR   Marginal VFR   IFR   Intensive IFR   Very Intensive IFR
Visi :
Ceiling :
>= 8 km
>= 3000ft
5 to 8 km
1000 to 3000 ft
1500m to 5 km
500 to 1000 ft
800 to 1500m
200 to 500 ft
< 800m
< 200 ft
Symbols :   Thunderstorms  Fog  Heavy snow  Heavy precipitations  Wind > 20 kt






- Airport Elevation : 1026 ft
- IATA code : ATL


KATL - Hartsfield Jackson Atlanta International

CURRENT METAR :
  • 150852Z 24004KT 10SM FEW100 FEW140 23/19 A2996 RMK AO2 SLP133 T02330189 56008

EXPIRED METARs :
  • 150752Z 25003KT 10SM FEW100 SCT140 SCT250 24/19 A2996 RMK AO2 SLP135 T02390189
  • 150652Z 23005KT 10SM FEW100 BKN140 BKN250 24/19 A2997 RMK AO2 SLP137 T02440189

TAF KATL
Valid from the 15 at 08:00 until the 16 at 12:00 UTC


150741Z 1508/1612 22005KT P6SM SCT100
FM151400 25009KT P6SM FEW035 SCT250
FM151800 27009KT P6SM SCT045 SCT250
PROB30 1520/1524 4SM TSRA BR BKN050CB
FM160300 32004KT P6SM FEW250
KZTL FIR / North America



MET'MAP, your aeronautical weather chart ! - Copyright ORBIFLY December 2007 - Disclaimer

ORBIFLY MET'MAP TEAM :

Programming & Development : Alexandra Zaïnal
Original concept : Baudouin d'Aumeries
Technical & hardware support : Manuel Goepfert
Assistance : Marc-Olivier Méhu




SOURCES & CREDITS :

   NOAA       Earth
Advisory